sensor_id;sensor_type;location;lat;lon;timestamp;temperature;humidity
2651;DHT22;1335;48.180;16.342;2022-09-09T00:02:45;15.10;99.90
2651;DHT22;1335;48.180;16.342;2022-09-09T00:05:19;15.30;99.90
2651;DHT22;1335;48.180;16.342;2022-09-09T00:11:36;15.50;99.90
2651;DHT22;1335;48.180;16.342;2022-09-09T00:14:23;15.20;99.90
2651;DHT22;1335;48.180;16.342;2022-09-09T00:17:00;15.50;99.90
2651;DHT22;1335;48.180;16.342;2022-09-09T00:19:38;15.90;99.90
2651;DHT22;1335;48.180;16.342;2022-09-09T00:22:26;15.30;99.90
2651;DHT22;1335;48.180;16.342;2022-09-09T00:25:08;15.30;99.90
2651;DHT22;1335;48.180;16.342;2022-09-09T00:28:28;15.20;99.90
2651;DHT22;1335;48.180;16.342;2022-09-09T00:31:04;15.30;99.90
2651;DHT22;1335;48.180;16.342;2022-09-09T00:33:42;14.90;99.90
2651;DHT22;1335;48.180;16.342;2022-09-09T00:36:31;15.00;99.90
2651;DHT22;1335;48.180;16.342;2022-09-09T00:39:03;14.40;99.90
2651;DHT22;1335;48.180;16.342;2022-09-09T00:41:43;15.20;99.90
2651;DHT22;1335;48.180;16.342;2022-09-09T00:44:55;14.70;99.90
2651;DHT22;1335;48.180;16.342;2022-09-09T00:47:46;14.90;99.90
2651;DHT22;1335;48.180;16.342;2022-09-09T00:50:37;15.00;99.90
2651;DHT22;1335;48.180;16.342;2022-09-09T00:53:31;14.70;99.90
2651;DHT22;1335;48.180;16.342;2022-09-09T00:56:13;15.10;99.90
2651;DHT22;1335;48.180;16.342;2022-09-09T00:58:43;15.10;99.90
2651;DHT22;1335;48.180;16.342;2022-09-09T01:01:19;14.90;99.90
2651;DHT22;1335;48.180;16.342;2022-09-09T01:03:53;14.90;99.90
2651;DHT22;1335;48.180;16.342;2022-09-09T01:06:30;14.60;99.90
2651;DHT22;1335;48.180;16.342;2022-09-09T01:09:10;15.00;99.90
2651;DHT22;1335;48.180;16.342;2022-09-09T01:11:52;14.70;99.90
2651;DHT22;1335;48.180;16.342;2022-09-09T01:14:55;14.60;99.90
2651;DHT22;1335;48.180;16.342;2022-09-09T01:17:58;15.50;99.90
2651;DHT22;1335;48.180;16.342;2022-09-09T01:20:34;14.80;99.90
2651;DHT22;1335;48.180;16.342;2022-09-09T01:23:41;14.80;99.90
2651;DHT22;1335;48.180;16.342;2022-09-09T01:26:33;15.10;99.90
2651;DHT22;1335;48.180;16.342;2022-09-09T01:29:04;15.00;99.90
2651;DHT22;1335;48.180;16.342;2022-09-09T01:31:41;15.20;99.90
2651;DHT22;1335;48.180;16.342;2022-09-09T01:34:33;14.40;99.90
2651;DHT22;1335;48.180;16.342;2022-09-09T01:37:13;15.80;99.90
2651;DHT22;1335;48.180;16.342;2022-09-09T01:39:42;15.50;99.90
2651;DHT22;1335;48.180;16.342;2022-09-09T01:42:15;14.80;99.90
2651;DHT22;1335;48.180;16.342;2022-09-09T01:44:43;14.90;99.90
2651;DHT22;1335;48.180;16.342;2022-09-09T01:47:10;14.60;99.90
2651;DHT22;1335;48.180;16.342;2022-09-09T01:49:43;14.60;99.90
2651;DHT22;1335;48.180;16.342;2022-09-09T01:52:10;15.00;99.90
2651;DHT22;1335;48.180;16.342;2022-09-09T01:54:38;14.80;99.90
2651;DHT22;1335;48.180;16.342;2022-09-09T01:57:11;14.80;99.90
2651;DHT22;1335;48.180;16.342;2022-09-09T01:59:51;14.80;99.90
2651;DHT22;1335;48.180;16.342;2022-09-09T02:02:24;15.50;99.90
2651;DHT22;1335;48.180;16.342;2022-09-09T02:04:56;14.70;99.90
2651;DHT22;1335;48.180;16.342;2022-09-09T02:07:37;14.60;99.90
2651;DHT22;1335;48.180;16.342;2022-09-09T02:10:10;14.90;99.90
2651;DHT22;1335;48.180;16.342;2022-09-09T02:12:43;15.20;99.90
2651;DHT22;1335;48.180;16.342;2022-09-09T02:15:19;14.60;99.90
2651;DHT22;1335;48.180;16.342;2022-09-09T02:17:52;14.70;99.90
2651;DHT22;1335;48.180;16.342;2022-09-09T02:20:21;15.20;99.90
2651;DHT22;1335;48.180;16.342;2022-09-09T02:22:51;14.80;99.90
2651;DHT22;1335;48.180;16.342;2022-09-09T02:25:25;14.20;99.90
2651;DHT22;1335;48.180;16.342;2022-09-09T02:27:55;14.80;99.90
2651;DHT22;1335;48.180;16.342;2022-09-09T02:30:29;14.50;99.90
2651;DHT22;1335;48.180;16.342;2022-09-09T02:33:00;14.60;99.90
2651;DHT22;1335;48.180;16.342;2022-09-09T02:35:30;14.50;99.90
2651;DHT22;1335;48.180;16.342;2022-09-09T02:38:02;14.50;99.90
2651;DHT22;1335;48.180;16.342;2022-09-09T02:40:32;14.00;99.90
2651;DHT22;1335;48.180;16.342;2022-09-09T02:43:00;13.90;99.90
2651;DHT22;1335;48.180;16.342;2022-09-09T02:45:38;15.00;99.90
2651;DHT22;1335;48.180;16.342;2022-09-09T02:48:17;14.40;99.90
2651;DHT22;1335;48.180;16.342;2022-09-09T02:50:54;14.30;99.90
2651;DHT22;1335;48.180;16.342;2022-09-09T02:53:26;14.60;99.90
2651;DHT22;1335;48.180;16.342;2022-09-09T02:55:58;14.70;99.90
2651;DHT22;1335;48.180;16.342;2022-09-09T02:58:28;14.10;99.90
2651;DHT22;1335;48.180;16.342;2022-09-09T03:00:57;14.80;99.90
2651;DHT22;1335;48.180;16.342;2022-09-09T03:03:26;14.40;99.90
2651;DHT22;1335;48.180;16.342;2022-09-09T03:05:56;15.30;99.90
2651;DHT22;1335;48.180;16.342;2022-09-09T03:08:24;14.50;99.90
2651;DHT22;1335;48.180;16.342;2022-09-09T03:10:52;14.30;99.90
2651;DHT22;1335;48.180;16.342;2022-09-09T03:13:21;14.60;99.90
2651;DHT22;1335;48.180;16.342;2022-09-09T03:15:48;14.50;99.90
2651;DHT22;1335;48.180;16.342;2022-09-09T03:18:17;14.90;99.90
2651;DHT22;1335;48.180;16.342;2022-09-09T03:20:46;14.40;99.90
2651;DHT22;1335;48.180;16.342;2022-09-09T03:23:14;14.70;99.90
2651;DHT22;1335;48.180;16.342;2022-09-09T03:25:47;14.40;99.90
2651;DHT22;1335;48.180;16.342;2022-09-09T03:28:14;14.60;99.90
2651;DHT22;1335;48.180;16.342;2022-09-09T03:30:42;14.40;99.90
2651;DHT22;1335;48.180;16.342;2022-09-09T03:33:09;14.10;99.90
2651;DHT22;1335;48.180;16.342;2022-09-09T03:35:44;13.90;99.90
2651;DHT22;1335;48.180;16.342;2022-09-09T03:38:11;14.30;99.90
2651;DHT22;1335;48.180;16.342;2022-09-09T03:40:39;14.10;99.90
2651;DHT22;1335;48.180;16.342;2022-09-09T03:43:06;14.60;99.90
2651;DHT22;1335;48.180;16.342;2022-09-09T03:45:34;14.80;99.90
2651;DHT22;1335;48.180;16.342;2022-09-09T03:48:02;14.60;99.90
2651;DHT22;1335;48.180;16.342;2022-09-09T03:50:31;14.50;99.90
2651;DHT22;1335;48.180;16.342;2022-09-09T03:53:00;14.50;99.90
2651;DHT22;1335;48.180;16.342;2022-09-09T03:55:28;14.20;99.90
2651;DHT22;1335;48.180;16.342;2022-09-09T03:57:55;14.70;99.90
2651;DHT22;1335;48.180;16.342;2022-09-09T04:00:23;14.30;99.90
2651;DHT22;1335;48.180;16.342;2022-09-09T04:02:53;14.40;99.90
2651;DHT22;1335;48.180;16.342;2022-09-09T04:05:24;14.40;99.90
2651;DHT22;1335;48.180;16.342;2022-09-09T04:07:51;14.40;99.90
2651;DHT22;1335;48.180;16.342;2022-09-09T04:10:19;14.50;99.90
2651;DHT22;1335;48.180;16.342;2022-09-09T04:12:49;13.70;99.90
2651;DHT22;1335;48.180;16.342;2022-09-09T04:15:16;14.60;99.90
2651;DHT22;1335;48.180;16.342;2022-09-09T04:17:44;14.10;99.90
2651;DHT22;1335;48.180;16.342;2022-09-09T04:20:11;14.50;99.90
2651;DHT22;1335;48.180;16.342;2022-09-09T04:22:38;14.80;99.90
2651;DHT22;1335;48.180;16.342;2022-09-09T04:25:07;14.20;99.90
2651;DHT22;1335;48.180;16.342;2022-09-09T04:27:37;14.10;99.90
2651;DHT22;1335;48.180;16.342;2022-09-09T04:30:05;14.20;99.90
2651;DHT22;1335;48.180;16.342;2022-09-09T04:32:33;13.90;99.90
2651;DHT22;1335;48.180;16.342;2022-09-09T04:35:01;14.20;99.90
2651;DHT22;1335;48.180;16.342;2022-09-09T04:37:29;14.10;99.90
2651;DHT22;1335;48.180;16.342;2022-09-09T04:39:56;14.30;99.90
2651;DHT22;1335;48.180;16.342;2022-09-09T04:42:27;13.50;99.90
2651;DHT22;1335;48.180;16.342;2022-09-09T04:45:00;13.70;99.90
2651;DHT22;1335;48.180;16.342;2022-09-09T04:47:27;14.30;99.90
2651;DHT22;1335;48.180;16.342;2022-09-09T04:49:55;14.00;99.90
2651;DHT22;1335;48.180;16.342;2022-09-09T04:52:23;14.10;99.90
2651;DHT22;1335;48.180;16.342;2022-09-09T04:54:58;14.40;99.90
2651;DHT22;1335;48.180;16.342;2022-09-09T04:57:26;14.30;99.90
2651;DHT22;1335;48.180;16.342;2022-09-09T04:59:54;14.80;99.90
2651;DHT22;1335;48.180;16.342;2022-09-09T05:02:24;14.20;99.90
2651;DHT22;1335;48.180;16.342;2022-09-09T05:04:51;14.60;99.90
2651;DHT22;1335;48.180;16.342;2022-09-09T05:07:18;14.70;99.90
2651;DHT22;1335;48.180;16.342;2022-09-09T05:09:46;14.30;99.90
2651;DHT22;1335;48.180;16.342;2022-09-09T05:12:17;14.40;99.90
2651;DHT22;1335;48.180;16.342;2022-09-09T05:14:48;14.80;99.90
2651;DHT22;1335;48.180;16.342;2022-09-09T05:17:50;15.70;99.90
2651;DHT22;1335;48.180;16.342;2022-09-09T05:20:20;16.60;99.90
2651;DHT22;1335;48.180;16.342;2022-09-09T05:22:52;17.40;99.90
2651;DHT22;1335;48.180;16.342;2022-09-09T05:28:21;18.30;99.90
2651;DHT22;1335;48.180;16.342;2022-09-09T05:31:01;20.10;99.90
2651;DHT22;1335;48.180;16.342;2022-09-09T05:33:35;19.30;99.90
2651;DHT22;1335;48.180;16.342;2022-09-09T05:36:18;18.70;99.90
2651;DHT22;1335;48.180;16.342;2022-09-09T05:38:54;18.70;99.90
2651;DHT22;1335;48.180;16.342;2022-09-09T05:41:29;18.20;99.90
2651;DHT22;1335;48.180;16.342;2022-09-09T05:44:02;18.00;99.90
2651;DHT22;1335;48.180;16.342;2022-09-09T05:46:44;18.30;99.90
2651;DHT22;1335;48.180;16.342;2022-09-09T05:49:21;18.60;99.90
2651;DHT22;1335;48.180;16.342;2022-09-09T05:51:53;17.90;99.90
2651;DHT22;1335;48.180;16.342;2022-09-09T05:54:21;18.40;99.90
2651;DHT22;1335;48.180;16.342;2022-09-09T05:56:51;18.40;99.90
2651;DHT22;1335;48.180;16.342;2022-09-09T05:59:32;18.30;99.90
2651;DHT22;1335;48.180;16.342;2022-09-09T06:01:59;19.30;99.90
2651;DHT22;1335;48.180;16.342;2022-09-09T06:04:32;19.50;99.90
2651;DHT22;1335;48.180;16.342;2022-09-09T06:07:07;20.50;99.90
2651;DHT22;1335;48.180;16.342;2022-09-09T06:09:52;21.10;99.90
2651;DHT22;1335;48.180;16.342;2022-09-09T06:12:19;20.40;99.90
2651;DHT22;1335;48.180;16.342;2022-09-09T06:15:11;20.20;99.90
2651;DHT22;1335;48.180;16.342;2022-09-09T06:17:47;22.00;99.90
2651;DHT22;1335;48.180;16.342;2022-09-09T06:20:34;24.70;99.90
2651;DHT22;1335;48.180;16.342;2022-09-09T06:23:33;28.70;99.90
2651;DHT22;1335;48.180;16.342;2022-09-09T06:26:16;32.40;99.90
2651;DHT22;1335;48.180;16.342;2022-09-09T06:28:59;33.30;99.90
2651;DHT22;1335;48.180;16.342;2022-09-09T06:31:29;34.50;99.90
2651;DHT22;1335;48.180;16.342;2022-09-09T06:33:59;35.20;99.90
2651;DHT22;1335;48.180;16.342;2022-09-09T06:36:38;35.80;99.90
2651;DHT22;1335;48.180;16.342;2022-09-09T06:39:06;36.70;99.90
2651;DHT22;1335;48.180;16.342;2022-09-09T06:41:35;37.40;99.90
2651;DHT22;1335;48.180;16.342;2022-09-09T06:44:05;35.10;99.90
2651;DHT22;1335;48.180;16.342;2022-09-09T06:46:34;32.50;99.90
2651;DHT22;1335;48.180;16.342;2022-09-09T06:49:03;28.90;99.90
2651;DHT22;1335;48.180;16.342;2022-09-09T06:51:34;27.90;99.90
2651;DHT22;1335;48.180;16.342;2022-09-09T06:54:13;26.50;99.90
2651;DHT22;1335;48.180;16.342;2022-09-09T06:56:56;25.50;99.90
2651;DHT22;1335;48.180;16.342;2022-09-09T06:59:31;24.80;99.90
2651;DHT22;1335;48.180;16.342;2022-09-09T07:02:02;25.00;99.90
2651;DHT22;1335;48.180;16.342;2022-09-09T07:04:30;25.60;99.90
2651;DHT22;1335;48.180;16.342;2022-09-09T07:07:36;26.00;99.90
2651;DHT22;1335;48.180;16.342;2022-09-09T07:10:18;26.90;99.90
2651;DHT22;1335;48.180;16.342;2022-09-09T07:12:54;27.90;99.90
2651;DHT22;1335;48.180;16.342;2022-09-09T07:15:23;29.00;99.90
2651;DHT22;1335;48.180;16.342;2022-09-09T07:18:00;31.10;99.90
2651;DHT22;1335;48.180;16.342;2022-09-09T07:20:38;31.40;99.90
2651;DHT22;1335;48.180;16.342;2022-09-09T07:23:10;30.50;99.90
2651;DHT22;1335;48.180;16.342;2022-09-09T07:25:38;28.70;99.90
2651;DHT22;1335;48.180;16.342;2022-09-09T07:28:11;27.70;99.90
2651;DHT22;1335;48.180;16.342;2022-09-09T07:30:39;29.20;99.90
2651;DHT22;1335;48.180;16.342;2022-09-09T07:33:16;31.60;99.90
2651;DHT22;1335;48.180;16.342;2022-09-09T07:35:48;31.80;99.90
2651;DHT22;1335;48.180;16.342;2022-09-09T07:38:21;29.80;99.90
2651;DHT22;1335;48.180;16.342;2022-09-09T07:41:20;26.30;99.90
2651;DHT22;1335;48.180;16.342;2022-09-09T07:43:54;29.90;99.90
2651;DHT22;1335;48.180;16.342;2022-09-09T07:46:26;33.20;99.90
2651;DHT22;1335;48.180;16.342;2022-09-09T07:49:00;30.10;99.90
2651;DHT22;1335;48.180;16.342;2022-09-09T07:55:18;27.90;99.90
2651;DHT22;1335;48.180;16.342;2022-09-09T07:57:52;28.00;99.90
2651;DHT22;1335;48.180;16.342;2022-09-09T08:00:19;25.00;99.90
2651;DHT22;1335;48.180;16.342;2022-09-09T08:02:47;23.90;99.90
2651;DHT22;1335;48.180;16.342;2022-09-09T08:05:16;23.30;99.90
2651;DHT22;1335;48.180;16.342;2022-09-09T08:07:58;23.10;99.90
2651;DHT22;1335;48.180;16.342;2022-09-09T08:10:31;24.30;99.90
2651;DHT22;1335;48.180;16.342;2022-09-09T08:12:59;25.20;99.90
2651;DHT22;1335;48.180;16.342;2022-09-09T08:15:26;25.80;99.90
2651;DHT22;1335;48.180;16.342;2022-09-09T08:17:54;25.90;99.90
2651;DHT22;1335;48.180;16.342;2022-09-09T08:20:22;26.20;99.90
2651;DHT22;1335;48.180;16.342;2022-09-09T08:22:51;27.90;99.90
2651;DHT22;1335;48.180;16.342;2022-09-09T08:25:49;28.10;99.90
2651;DHT22;1335;48.180;16.342;2022-09-09T08:28:16;31.00;99.90
2651;DHT22;1335;48.180;16.342;2022-09-09T08:30:47;34.00;99.90
2651;DHT22;1335;48.180;16.342;2022-09-09T08:33:16;35.20;99.90
2651;DHT22;1335;48.180;16.342;2022-09-09T08:35:50;35.80;99.90
2651;DHT22;1335;48.180;16.342;2022-09-09T08:38:22;27.90;99.90
2651;DHT22;1335;48.180;16.342;2022-09-09T08:40:53;27.50;99.90
2651;DHT22;1335;48.180;16.342;2022-09-09T08:43:26;29.40;99.90
2651;DHT22;1335;48.180;16.342;2022-09-09T08:46:00;32.20;99.90
2651;DHT22;1335;48.180;16.342;2022-09-09T08:48:43;31.30;99.90
2651;DHT22;1335;48.180;16.342;2022-09-09T08:51:12;33.80;99.90
2651;DHT22;1335;48.180;16.342;2022-09-09T08:53:43;33.70;99.90
2651;DHT22;1335;48.180;16.342;2022-09-09T08:56:25;36.30;99.90
2651;DHT22;1335;48.180;16.342;2022-09-09T08:58:55;30.20;99.90
2651;DHT22;1335;48.180;16.342;2022-09-09T09:07:32;38.10;99.90
2651;DHT22;1335;48.180;16.342;2022-09-09T09:10:16;39.10;99.90
2651;DHT22;1335;48.180;16.342;2022-09-09T09:12:52;39.40;99.90
2651;DHT22;1335;48.180;16.342;2022-09-09T09:15:25;38.00;99.90
2651;DHT22;1335;48.180;16.342;2022-09-09T09:17:53;36.60;99.90
2651;DHT22;1335;48.180;16.342;2022-09-09T09:20:26;32.40;99.90
2651;DHT22;1335;48.180;16.342;2022-09-09T09:23:00;31.60;99.90
2651;DHT22;1335;48.180;16.342;2022-09-09T09:25:33;32.90;99.90
2651;DHT22;1335;48.180;16.342;2022-09-09T09:28:15;36.60;99.90
2651;DHT22;1335;48.180;16.342;2022-09-09T09:30:49;40.40;99.90
2651;DHT22;1335;48.180;16.342;2022-09-09T09:33:21;42.40;99.90
2651;DHT22;1335;48.180;16.342;2022-09-09T09:35:51;41.50;99.90
2651;DHT22;1335;48.180;16.342;2022-09-09T09:38:27;38.60;99.90
2651;DHT22;1335;48.180;16.342;2022-09-09T09:40:58;30.70;99.90
2651;DHT22;1335;48.180;16.342;2022-09-09T09:43:29;30.00;99.90
2651;DHT22;1335;48.180;16.342;2022-09-09T09:45:58;27.60;99.90
2651;DHT22;1335;48.180;16.342;2022-09-09T09:48:29;26.80;99.90
2651;DHT22;1335;48.180;16.342;2022-09-09T09:51:10;26.40;99.90
2651;DHT22;1335;48.180;16.342;2022-09-09T09:53:41;26.30;99.90
2651;DHT22;1335;48.180;16.342;2022-09-09T09:56:11;26.50;99.90
2651;DHT22;1335;48.180;16.342;2022-09-09T09:58:49;25.90;99.90
2651;DHT22;1335;48.180;16.342;2022-09-09T10:01:22;26.20;99.90
2651;DHT22;1335;48.180;16.342;2022-09-09T10:03:54;26.60;99.90
2651;DHT22;1335;48.180;16.342;2022-09-09T10:06:32;26.70;99.90
2651;DHT22;1335;48.180;16.342;2022-09-09T10:09:23;29.40;99.90
2651;DHT22;1335;48.180;16.342;2022-09-09T10:11:57;26.50;99.90
2651;DHT22;1335;48.180;16.342;2022-09-09T10:14:38;25.70;99.90
2651;DHT22;1335;48.180;16.342;2022-09-09T10:17:20;26.00;99.90
2651;DHT22;1335;48.180;16.342;2022-09-09T10:20:01;27.20;99.90
2651;DHT22;1335;48.180;16.342;2022-09-09T10:22:34;29.40;99.90
2651;DHT22;1335;48.180;16.342;2022-09-09T10:28:23;28.30;99.90
2651;DHT22;1335;48.180;16.342;2022-09-09T10:31:04;29.70;99.90
2651;DHT22;1335;48.180;16.342;2022-09-09T10:33:44;26.60;99.90
2651;DHT22;1335;48.180;16.342;2022-09-09T10:36:19;26.20;99.90
2651;DHT22;1335;48.180;16.342;2022-09-09T10:38:52;26.10;99.90
2651;DHT22;1335;48.180;16.342;2022-09-09T10:41:35;26.60;99.90
2651;DHT22;1335;48.180;16.342;2022-09-09T10:44:18;26.40;99.90
2651;DHT22;1335;48.180;16.342;2022-09-09T10:50:03;27.90;99.90
2651;DHT22;1335;48.180;16.342;2022-09-09T10:52:40;29.30;99.90
2651;DHT22;1335;48.180;16.342;2022-09-09T10:55:13;30.90;99.90
2651;DHT22;1335;48.180;16.342;2022-09-09T10:57:44;29.50;99.90
2651;DHT22;1335;48.180;16.342;2022-09-09T11:00:17;28.90;99.90
2651;DHT22;1335;48.180;16.342;2022-09-09T11:02:54;27.80;99.90
2651;DHT22;1335;48.180;16.342;2022-09-09T11:05:30;25.60;99.90
2651;DHT22;1335;48.180;16.342;2022-09-09T11:08:03;24.80;99.90
2651;DHT22;1335;48.180;16.342;2022-09-09T11:10:37;25.20;99.90
2651;DHT22;1335;48.180;16.342;2022-09-09T11:13:17;24.40;99.90
2651;DHT22;1335;48.180;16.342;2022-09-09T11:15:49;25.00;99.90
2651;DHT22;1335;48.180;16.342;2022-09-09T11:18:25;23.70;99.90
2651;DHT22;1335;48.180;16.342;2022-09-09T11:21:02;24.90;99.90
2651;DHT22;1335;48.180;16.342;2022-09-09T11:23:38;24.80;99.90
2651;DHT22;1335;48.180;16.342;2022-09-09T11:26:28;25.30;99.90
2651;DHT22;1335;48.180;16.342;2022-09-09T11:29:13;26.30;99.90
2651;DHT22;1335;48.180;16.342;2022-09-09T11:31:46;26.40;99.90
2651;DHT22;1335;48.180;16.342;2022-09-09T11:34:46;27.00;99.90
2651;DHT22;1335;48.180;16.342;2022-09-09T11:40:37;28.00;99.90
2651;DHT22;1335;48.180;16.342;2022-09-09T11:43:21;28.40;99.90
2651;DHT22;1335;48.180;16.342;2022-09-09T11:45:53;28.60;99.90
2651;DHT22;1335;48.180;16.342;2022-09-09T11:48:41;28.40;99.90
2651;DHT22;1335;48.180;16.342;2022-09-09T11:51:27;29.10;99.90
2651;DHT22;1335;48.180;16.342;2022-09-09T11:54:44;28.80;99.90
2651;DHT22;1335;48.180;16.342;2022-09-09T11:57:32;30.30;99.90
2651;DHT22;1335;48.180;16.342;2022-09-09T12:00:03;30.40;99.90
2651;DHT22;1335;48.180;16.342;2022-09-09T12:02:32;28.70;99.90
2651;DHT22;1335;48.180;16.342;2022-09-09T12:05:24;27.70;99.90
2651;DHT22;1335;48.180;16.342;2022-09-09T12:08:26;26.40;99.90
2651;DHT22;1335;48.180;16.342;2022-09-09T12:10:57;25.40;99.90
2651;DHT22;1335;48.180;16.342;2022-09-09T12:13:31;25.70;99.90
2651;DHT22;1335;48.180;16.342;2022-09-09T12:16:28;25.10;99.90
2651;DHT22;1335;48.180;16.342;2022-09-09T12:19:05;26.40;99.90
2651;DHT22;1335;48.180;16.342;2022-09-09T12:21:39;26.40;99.90
2651;DHT22;1335;48.180;16.342;2022-09-09T12:24:26;27.20;99.90
2651;DHT22;1335;48.180;16.342;2022-09-09T12:27:04;27.70;99.90
2651;DHT22;1335;48.180;16.342;2022-09-09T12:29:55;26.90;99.90
2651;DHT22;1335;48.180;16.342;2022-09-09T12:32:40;25.90;99.90
2651;DHT22;1335;48.180;16.342;2022-09-09T12:35:27;25.90;99.90
2651;DHT22;1335;48.180;16.342;2022-09-09T12:38:14;26.00;99.90
2651;DHT22;1335;48.180;16.342;2022-09-09T12:44:10;26.50;99.90
2651;DHT22;1335;48.180;16.342;2022-09-09T12:46:46;27.40;99.90
2651;DHT22;1335;48.180;16.342;2022-09-09T12:49:31;27.30;99.90
2651;DHT22;1335;48.180;16.342;2022-09-09T12:52:08;27.80;99.90
2651;DHT22;1335;48.180;16.342;2022-09-09T12:54:49;26.90;99.90
2651;DHT22;1335;48.180;16.342;2022-09-09T12:57:20;27.10;99.90
2651;DHT22;1335;48.180;16.342;2022-09-09T13:00:05;26.30;99.90
2651;DHT22;1335;48.180;16.342;2022-09-09T13:02:34;27.90;99.90
2651;DHT22;1335;48.180;16.342;2022-09-09T13:05:28;26.10;99.90
2651;DHT22;1335;48.180;16.342;2022-09-09T13:08:10;27.00;99.90
2651;DHT22;1335;48.180;16.342;2022-09-09T13:10:59;25.10;99.90
2651;DHT22;1335;48.180;16.342;2022-09-09T13:13:54;25.60;99.90
2651;DHT22;1335;48.180;16.342;2022-09-09T13:16:32;25.50;99.90
2651;DHT22;1335;48.180;16.342;2022-09-09T13:19:10;26.20;99.90
2651;DHT22;1335;48.180;16.342;2022-09-09T13:22:11;26.10;99.90
2651;DHT22;1335;48.180;16.342;2022-09-09T13:25:01;25.50;99.90
2651;DHT22;1335;48.180;16.342;2022-09-09T13:27:32;25.80;99.90
2651;DHT22;1335;48.180;16.342;2022-09-09T13:30:22;25.70;99.90
2651;DHT22;1335;48.180;16.342;2022-09-09T13:33:22;25.40;99.90
2651;DHT22;1335;48.180;16.342;2022-09-09T13:35:54;24.90;99.90
2651;DHT22;1335;48.180;16.342;2022-09-09T13:38:37;24.10;99.90
2651;DHT22;1335;48.180;16.342;2022-09-09T13:41:22;24.00;99.90
2651;DHT22;1335;48.180;16.342;2022-09-09T13:44:06;24.00;99.90
2651;DHT22;1335;48.180;16.342;2022-09-09T13:49:38;25.10;99.90
2651;DHT22;1335;48.180;16.342;2022-09-09T13:52:20;24.50;99.90
2651;DHT22;1335;48.180;16.342;2022-09-09T13:55:03;24.70;99.90
2651;DHT22;1335;48.180;16.342;2022-09-09T13:57:35;24.40;99.90
2651;DHT22;1335;48.180;16.342;2022-09-09T14:00:17;24.10;99.90
2651;DHT22;1335;48.180;16.342;2022-09-09T14:02:59;24.50;99.90
2651;DHT22;1335;48.180;16.342;2022-09-09T14:08:34;24.60;99.90
2651;DHT22;1335;48.180;16.342;2022-09-09T14:11:16;24.50;99.90
2651;DHT22;1335;48.180;16.342;2022-09-09T14:13:58;24.20;99.90
2651;DHT22;1335;48.180;16.342;2022-09-09T14:16:31;24.90;99.90
2651;DHT22;1335;48.180;16.342;2022-09-09T14:19:34;24.00;99.90
2651;DHT22;1335;48.180;16.342;2022-09-09T14:22:38;23.90;99.90
2651;DHT22;1335;48.180;16.342;2022-09-09T14:28:36;23.00;99.90
2651;DHT22;1335;48.180;16.342;2022-09-09T14:31:18;22.70;99.90
2651;DHT22;1335;48.180;16.342;2022-09-09T14:34:02;22.60;99.90
2651;DHT22;1335;48.180;16.342;2022-09-09T14:36:43;22.30;99.90
2651;DHT22;1335;48.180;16.342;2022-09-09T14:39:12;23.00;99.90
2651;DHT22;1335;48.180;16.342;2022-09-09T14:41:41;22.30;99.90
2651;DHT22;1335;48.180;16.342;2022-09-09T15:29:13;22.80;99.90
2651;DHT22;1335;48.180;16.342;2022-09-09T15:32:12;22.80;99.90
2651;DHT22;1335;48.180;16.342;2022-09-09T15:34:42;22.70;99.90
2651;DHT22;1335;48.180;16.342;2022-09-09T15:37:14;22.40;99.90
2651;DHT22;1335;48.180;16.342;2022-09-09T15:39:42;22.50;99.90
2651;DHT22;1335;48.180;16.342;2022-09-09T15:42:10;22.20;99.90
2651;DHT22;1335;48.180;16.342;2022-09-09T15:44:53;22.20;99.90
2651;DHT22;1335;48.180;16.342;2022-09-09T15:47:25;21.90;99.90
2651;DHT22;1335;48.180;16.342;2022-09-09T15:49:53;21.60;99.90
2651;DHT22;1335;48.180;16.342;2022-09-09T15:52:21;21.60;99.90
2651;DHT22;1335;48.180;16.342;2022-09-09T15:54:49;20.80;99.90
2651;DHT22;1335;48.180;16.342;2022-09-09T15:57:31;21.10;99.90
2651;DHT22;1335;48.180;16.342;2022-09-09T16:00:17;20.60;99.90
2651;DHT22;1335;48.180;16.342;2022-09-09T16:02:58;21.30;99.90
2651;DHT22;1335;48.180;16.342;2022-09-09T16:05:31;20.60;99.90
2651;DHT22;1335;48.180;16.342;2022-09-09T16:08:00;20.90;99.90
2651;DHT22;1335;48.180;16.342;2022-09-09T16:10:41;20.40;99.90
2651;DHT22;1335;48.180;16.342;2022-09-09T16:13:22;20.60;99.90
2651;DHT22;1335;48.180;16.342;2022-09-09T16:15:55;20.40;99.90
2651;DHT22;1335;48.180;16.342;2022-09-09T16:18:23;20.40;99.90
2651;DHT22;1335;48.180;16.342;2022-09-09T16:20:54;19.30;99.90
2651;DHT22;1335;48.180;16.342;2022-09-09T16:23:27;20.30;99.90
2651;DHT22;1335;48.180;16.342;2022-09-09T16:25:59;20.10;99.90
2651;DHT22;1335;48.180;16.342;2022-09-09T16:28:32;20.10;99.90
2651;DHT22;1335;48.180;16.342;2022-09-09T16:31:16;20.20;99.90
2651;DHT22;1335;48.180;16.342;2022-09-09T16:33:45;19.50;99.90
2651;DHT22;1335;48.180;16.342;2022-09-09T16:36:19;20.20;99.90
2651;DHT22;1335;48.180;16.342;2022-09-09T16:38:47;19.60;99.90
2651;DHT22;1335;48.180;16.342;2022-09-09T16:41:15;19.60;99.90
2651;DHT22;1335;48.180;16.342;2022-09-09T16:43:43;19.50;99.90
2651;DHT22;1335;48.180;16.342;2022-09-09T16:46:14;19.60;99.90
2651;DHT22;1335;48.180;16.342;2022-09-09T16:48:43;19.70;99.90
2651;DHT22;1335;48.180;16.342;2022-09-09T16:51:26;19.40;99.90
2651;DHT22;1335;48.180;16.342;2022-09-09T16:54:24;19.10;99.90
2651;DHT22;1335;48.180;16.342;2022-09-09T16:56:56;18.70;99.90
2651;DHT22;1335;48.180;16.342;2022-09-09T16:59:37;19.60;99.90
2651;DHT22;1335;48.180;16.342;2022-09-09T17:02:14;19.90;99.90
2651;DHT22;1335;48.180;16.342;2022-09-09T17:04:56;19.10;99.90
2651;DHT22;1335;48.180;16.342;2022-09-09T17:07:38;19.30;99.90
2651;DHT22;1335;48.180;16.342;2022-09-09T17:19:21;18.80;99.90
2651;DHT22;1335;48.180;16.342;2022-09-09T17:21:53;18.50;99.90
2651;DHT22;1335;48.180;16.342;2022-09-09T17:24:37;18.00;99.90
2651;DHT22;1335;48.180;16.342;2022-09-09T17:27:14;18.50;99.90
2651;DHT22;1335;48.180;16.342;2022-09-09T17:29:41;18.50;99.90
2651;DHT22;1335;48.180;16.342;2022-09-09T17:32:10;18.30;99.90
2651;DHT22;1335;48.180;16.342;2022-09-09T17:34:39;18.20;99.90
2651;DHT22;1335;48.180;16.342;2022-09-09T17:37:21;18.10;99.90
2651;DHT22;1335;48.180;16.342;2022-09-09T17:39:49;17.90;99.90
2651;DHT22;1335;48.180;16.342;2022-09-09T17:42:18;17.90;99.90
2651;DHT22;1335;48.180;16.342;2022-09-09T17:44:49;18.00;99.90
2651;DHT22;1335;48.180;16.342;2022-09-09T17:47:30;17.80;99.90
2651;DHT22;1335;48.180;16.342;2022-09-09T17:50:04;17.90;99.90
2651;DHT22;1335;48.180;16.342;2022-09-09T17:52:33;18.80;99.90
2651;DHT22;1335;48.180;16.342;2022-09-09T17:55:01;18.10;99.90
2651;DHT22;1335;48.180;16.342;2022-09-09T17:57:42;17.50;99.90
2651;DHT22;1335;48.180;16.342;2022-09-09T18:00:21;17.70;99.90
2651;DHT22;1335;48.180;16.342;2022-09-09T18:02:48;18.00;99.90
2651;DHT22;1335;48.180;16.342;2022-09-09T18:05:35;17.60;99.90
2651;DHT22;1335;48.180;16.342;2022-09-09T18:08:18;17.90;99.90
2651;DHT22;1335;48.180;16.342;2022-09-09T18:11:03;17.40;99.90
2651;DHT22;1335;48.180;16.342;2022-09-09T18:13:49;17.60;99.90
2651;DHT22;1335;48.180;16.342;2022-09-09T18:17:01;17.70;99.90